createdAt,value
2018-10-01T00:01:24.259Z,4.85
2018-10-01T00:06:18.289Z,5.00
2018-10-01T00:11:11.519Z,5.45
2018-10-01T00:16:05.114Z,6.15
2018-10-01T00:21:03.869Z,5.28
2018-10-01T00:25:57.120Z,5.47
2018-10-01T00:30:50.795Z,5.42
2018-10-01T00:35:44.033Z,5.72
2018-10-01T00:40:37.298Z,6.22
2018-10-01T00:45:30.535Z,6.08
2018-10-01T00:50:23.785Z,5.40
2018-10-01T00:55:17.011Z,5.97
2018-10-01T01:00:10.297Z,6.00
2018-10-01T01:05:03.598Z,6.30
2018-10-01T01:09:56.815Z,5.73
2018-10-01T01:14:50.046Z,5.47
2018-10-01T01:19:43.295Z,5.35
2018-10-01T01:24:36.506Z,5.12
2018-10-01T01:29:29.767Z,5.25
2018-10-01T01:34:23.096Z,5.00
2018-10-01T01:39:16.346Z,4.95
2018-10-01T01:44:09.544Z,4.70
2018-10-01T01:49:03.076Z,4.60
2018-10-01T01:53:56.278Z,4.72
2018-10-01T01:58:49.616Z,4.40
2018-10-01T02:03:42.904Z,3.85
2018-10-01T02:08:36.385Z,4.75
2018-10-01T02:13:29.607Z,3.90
2018-10-01T02:18:22.853Z,3.47
2018-10-01T02:23:16.114Z,2.58
2018-10-01T02:28:09.381Z,3.35
2018-10-01T02:33:03.133Z,3.10
2018-10-01T02:37:56.389Z,3.90
2018-10-01T02:42:49.625Z,3.95
2018-10-01T02:47:42.919Z,3.98
2018-10-01T02:52:41.701Z,3.92
2018-10-01T02:57:34.938Z,4.03
2018-10-01T03:02:28.220Z,4.10
2018-10-01T03:07:21.511Z,4.40
2018-10-01T03:12:14.888Z,4.78
2018-10-01T03:17:08.117Z,4.33
2018-10-01T03:22:01.355Z,4.35
2018-10-01T03:26:54.636Z,4.90
2018-10-01T03:31:47.859Z,5.28
2018-10-01T03:36:41.094Z,5.58
2018-10-01T03:41:34.330Z,6.00
2018-10-01T03:46:27.567Z,5.78
2018-10-01T03:51:20.880Z,6.50
2018-10-01T03:56:14.167Z,5.47
2018-10-01T04:01:07.537Z,6.08
2018-10-01T04:06:00.919Z,5.42
2018-10-01T04:10:54.164Z,5.10
2018-10-01T04:15:47.437Z,4.45
2018-10-01T04:20:40.716Z,5.65
2018-10-01T04:25:34.085Z,5.67
2018-10-01T04:30:27.451Z,4.97
2018-10-01T04:35:20.695Z,4.60
2018-10-01T04:40:15.096Z,5.08
2018-10-01T04:45:08.384Z,4.95
2018-10-01T04:50:01.660Z,5.20
2018-10-01T04:54:54.943Z,5.15
2018-10-01T04:59:48.209Z,5.40
2018-10-01T05:04:41.432Z,4.75
2018-10-01T05:09:34.734Z,5.25
2018-10-01T05:14:28.019Z,4.95
2018-10-01T05:19:21.253Z,5.58
2018-10-01T05:24:14.509Z,5.22
2018-10-01T05:29:08.124Z,4.78
2018-10-01T05:34:01.338Z,4.50
2018-10-01T05:38:54.621Z,5.33
2018-10-01T05:43:47.868Z,5.35
2018-10-01T05:48:41.191Z,5.03
2018-10-01T05:53:34.420Z,5.15
2018-10-01T05:58:27.693Z,4.40
2018-10-01T06:03:21.057Z,4.60
2018-10-01T06:08:14.313Z,4.13
2018-10-01T06:13:07.567Z,3.67
2018-10-01T06:18:01.110Z,3.65
2018-10-01T06:22:54.362Z,3.05
2018-10-01T06:27:47.591Z,3.05
2018-10-01T06:32:40.867Z,3.52
2018-10-01T06:37:34.076Z,3.27
2018-10-01T06:42:27.369Z,3.12
2018-10-01T06:47:20.612Z,3.17
2018-10-01T06:52:13.811Z,2.98
2018-10-01T06:57:07.055Z,3.47
2018-10-01T07:02:00.296Z,3.75
2018-10-01T07:06:53.548Z,3.17
2018-10-01T07:11:46.881Z,3.17
2018-10-01T07:16:40.147Z,3.10
2018-10-01T07:21:33.402Z,3.47
2018-10-01T07:26:27.108Z,2.87
2018-10-01T07:31:20.352Z,3.10
2018-10-01T07:36:13.611Z,2.10
2018-10-01T07:41:07.080Z,2.83
2018-10-01T07:46:00.379Z,1.77
2018-10-01T07:50:53.695Z,2.27
2018-10-01T07:55:46.892Z,2.15
2018-10-01T08:00:40.124Z,1.30
2018-10-01T08:05:33.398Z,1.40
2018-10-01T08:10:26.633Z,1.60
2018-10-01T08:15:19.896Z,1.40
2018-10-01T08:20:13.492Z,1.40
2018-10-01T08:25:07.127Z,1.20
2018-10-01T08:30:00.477Z,1.60
2018-10-01T08:34:53.735Z,1.27
2018-10-01T08:39:47.245Z,1.45
2018-10-01T08:44:40.568Z,1.20
2018-10-01T08:49:39.496Z,1.60
2018-10-01T08:54:34.639Z,1.60
2018-10-01T08:59:27.986Z,0.98
2018-10-01T09:04:21.282Z,1.52
2018-10-01T09:09:14.565Z,1.10
2018-10-01T09:14:07.890Z,0.98
2018-10-01T09:19:01.117Z,1.32
2018-10-01T09:23:56.255Z,1.10
2018-10-01T09:28:49.973Z,1.52
2018-10-01T09:33:43.286Z,1.25
2018-10-01T09:38:37.295Z,1.80
2018-10-01T09:43:30.557Z,1.15
2018-10-01T09:48:23.763Z,1.22
2018-10-01T09:53:16.958Z,1.12
2018-10-01T09:58:10.255Z,1.32
2018-10-01T10:03:03.913Z,1.20
2018-10-01T10:07:57.215Z,0.90
2018-10-01T10:12:50.523Z,1.00
2018-10-01T10:17:43.803Z,0.88
2018-10-01T10:22:37.131Z,0.80
2018-10-01T10:27:30.323Z,1.27
2018-10-01T10:32:23.686Z,1.12
2018-10-01T10:37:16.909Z,1.62
2018-10-01T10:42:10.145Z,1.07
2018-10-01T10:47:03.360Z,1.00
2018-10-01T10:51:56.618Z,1.30
2018-10-01T10:56:49.910Z,1.17
2018-10-01T11:01:43.158Z,1.10
2018-10-01T11:06:36.408Z,1.47
2018-10-01T11:11:29.678Z,1.20
2018-10-01T11:16:22.912Z,1.00
2018-10-01T11:21:16.276Z,1.15
2018-10-01T11:26:09.467Z,1.10
2018-10-01T11:31:02.728Z,1.10
2018-10-01T11:35:59.856Z,1.20
2018-10-01T11:40:53.206Z,0.88
2018-10-01T11:45:46.696Z,0.93
2018-10-01T11:50:39.947Z,1.00
2018-10-01T11:55:33.345Z,0.98
2018-10-01T12:00:26.634Z,1.17
2018-10-01T12:05:19.904Z,0.70
2018-10-01T12:10:13.345Z,0.78
2018-10-01T12:15:06.856Z,0.65
2018-10-01T12:20:00.051Z,0.60
2018-10-01T12:24:53.426Z,0.65
2018-10-01T12:29:46.750Z,0.70
2018-10-01T12:34:40.165Z,0.70
2018-10-01T12:39:33.578Z,1.27
2018-10-01T12:44:27.095Z,0.82
2018-10-01T12:49:20.377Z,0.82
2018-10-01T12:54:13.734Z,1.02
2018-10-01T12:59:07.025Z,0.98
2018-10-01T13:04:00.256Z,1.00
2018-10-01T13:08:53.540Z,1.50
2018-10-01T13:13:46.892Z,1.67
2018-10-01T13:18:43.502Z,1.30
2018-10-01T13:23:36.810Z,1.20
2018-10-01T13:28:30.119Z,1.30
2018-10-01T13:33:23.370Z,0.93
2018-10-01T13:38:16.705Z,1.20
2018-10-01T13:43:09.975Z,1.12
2018-10-01T13:48:03.331Z,1.20
2018-10-01T13:52:56.525Z,1.25
2018-10-01T13:57:49.784Z,1.17
2018-10-01T14:02:43.071Z,1.65
2018-10-01T14:07:36.388Z,1.42
2018-10-01T14:12:29.631Z,1.82
2018-10-01T14:17:22.878Z,1.92
2018-10-01T14:22:16.147Z,2.10
2018-10-01T14:27:09.413Z,2.30
2018-10-01T14:32:02.766Z,2.22
2018-10-01T14:36:56.336Z,1.77
2018-10-01T14:41:50.183Z,2.10
2018-10-01T14:46:44.083Z,2.00
2018-10-01T14:51:37.369Z,2.22
2018-10-01T14:56:30.702Z,2.22
2018-10-01T15:01:23.931Z,2.17
2018-10-01T15:06:17.405Z,2.02
2018-10-01T15:11:10.480Z,2.00
2018-10-01T15:16:03.870Z,1.92
2018-10-01T15:20:57.335Z,1.72
2018-10-01T15:25:50.631Z,1.50
2018-10-01T15:30:43.895Z,1.25
2018-10-01T15:35:37.221Z,1.40
2018-10-01T15:40:30.549Z,1.20
2018-10-01T15:45:23.801Z,1.37
2018-10-01T15:50:17.153Z,1.80
2018-10-01T15:55:10.428Z,1.40
2018-10-01T16:00:04.799Z,1.70
2018-10-01T16:04:58.119Z,1.40
2018-10-01T16:09:51.482Z,1.50
2018-10-01T16:14:44.763Z,1.90
2018-10-01T16:19:38.084Z,1.52
2018-10-01T16:24:31.424Z,1.50
2018-10-01T16:29:24.679Z,1.82
2018-10-01T16:34:17.956Z,1.90
2018-10-01T16:39:12.499Z,1.55
2018-10-01T16:44:06.006Z,1.20
2018-10-01T16:48:59.422Z,1.60
2018-10-01T16:53:52.703Z,1.62
2018-10-01T16:58:45.947Z,1.30
2018-10-01T17:03:39.223Z,1.85
2018-10-01T17:08:32.555Z,1.87
2018-10-01T17:13:25.862Z,1.90
2018-10-01T17:18:20.023Z,1.62
2018-10-01T17:23:13.435Z,1.62
2018-10-01T17:28:06.712Z,1.40
2018-10-01T17:32:59.919Z,1.05
2018-10-01T17:37:53.230Z,1.07
2018-10-01T17:42:46.486Z,1.80
2018-10-01T17:47:40.030Z,1.32
2018-10-01T17:52:33.267Z,1.95
2018-10-01T17:57:26.895Z,1.45
2018-10-01T18:02:20.314Z,1.40
2018-10-01T18:07:13.866Z,1.25
2018-10-01T18:12:07.117Z,1.32
2018-10-01T18:17:00.400Z,1.62
2018-10-01T18:21:53.699Z,2.00
2018-10-01T18:26:46.926Z,1.40
2018-10-01T18:31:40.293Z,1.82
2018-10-01T18:36:33.591Z,2.30
2018-10-01T18:41:26.951Z,2.98
2018-10-01T18:46:20.286Z,1.77
2018-10-01T18:51:14.249Z,2.17
2018-10-01T18:56:07.571Z,1.82
2018-10-01T19:01:00.915Z,2.02
2018-10-01T19:05:55.183Z,2.05
2018-10-01T19:10:49.804Z,2.85
2018-10-01T19:15:43.239Z,2.00
2018-10-01T19:20:36.487Z,1.82
2018-10-01T19:25:30.502Z,1.87
2018-10-01T19:30:23.828Z,2.70
2018-10-01T19:35:17.059Z,1.90
2018-10-01T19:40:10.309Z,2.35
2018-10-01T19:45:03.672Z,1.70
2018-10-01T19:49:56.890Z,2.30
2018-10-01T19:54:58.340Z,2.55
2018-10-01T19:59:51.683Z,2.00
2018-10-01T20:04:45.014Z,2.27
2018-10-01T20:09:42.595Z,2.95
2018-10-01T20:14:35.852Z,2.33
2018-10-01T20:19:29.136Z,2.25
2018-10-01T20:24:23.232Z,2.58
2018-10-01T20:29:16.529Z,2.17
2018-10-01T20:34:09.744Z,2.27
2018-10-01T20:39:04.947Z,2.37
2018-10-01T20:44:14.319Z,2.17
2018-10-01T20:49:07.558Z,2.02
2018-10-01T20:54:00.878Z,1.87
2018-10-01T20:58:54.202Z,2.55
2018-10-01T21:03:47.469Z,2.52
2018-10-01T21:08:40.878Z,2.50
2018-10-01T21:13:34.192Z,2.45
2018-10-01T21:18:27.590Z,2.10
2018-10-01T21:23:21.015Z,2.05
2018-10-01T21:28:28.822Z,2.20
2018-10-01T21:33:24.801Z,2.27
2018-10-01T21:38:18.033Z,2.58
2018-10-01T21:43:11.308Z,2.60
2018-10-01T21:48:04.551Z,2.15
2018-10-01T21:52:57.832Z,2.77
2018-10-01T21:57:51.226Z,2.10
2018-10-01T22:02:44.493Z,2.75
2018-10-01T22:07:38.031Z,2.70
2018-10-01T22:12:31.309Z,2.10
2018-10-01T22:17:24.583Z,2.98
2018-10-01T22:22:17.868Z,2.35
2018-10-01T22:27:11.264Z,2.52
2018-10-01T22:32:04.571Z,2.45
2018-10-01T22:36:58.074Z,2.92
2018-10-01T22:41:52.034Z,2.00
2018-10-01T22:46:45.929Z,2.80
2018-10-01T22:51:39.211Z,1.82
2018-10-01T22:56:32.646Z,2.33
2018-10-01T23:01:26.113Z,1.80
2018-10-01T23:06:19.385Z,1.80
2018-10-01T23:11:12.645Z,2.10
2018-10-01T23:16:05.910Z,2.45
2018-10-01T23:20:59.219Z,1.85
2018-10-01T23:25:52.808Z,2.15
2018-10-01T23:30:46.083Z,1.77
2018-10-01T23:35:39.289Z,2.15
2018-10-01T23:40:32.506Z,1.67
2018-10-01T23:45:25.786Z,2.25
2018-10-01T23:50:19.732Z,1.62
2018-10-01T23:55:12.969Z,1.77
